createdAt,value
2023-02-16T16:06:09.345Z,45.74
2023-02-16T16:06:15.432Z,45.64
2023-02-16T16:06:20.549Z,45.44
2023-02-16T16:06:25.665Z,45.44
2023-02-16T16:06:30.786Z,45.34
2023-02-16T16:06:35.912Z,45.34
2023-02-16T16:06:41.049Z,45.34
2023-02-16T16:06:46.155Z,45.34
2023-02-16T16:06:51.280Z,45.34
2023-02-16T16:06:56.403Z,45.34
2023-02-16T16:07:01.516Z,45.34
2023-02-16T16:07:11.732Z,45.34
2023-02-16T16:07:21.973Z,45.34
2023-02-16T16:07:32.186Z,45.44
2023-02-16T16:07:42.384Z,45.44
2023-02-16T16:07:52.634Z,45.44
2023-02-16T16:08:02.806Z,45.44
2023-02-16T16:08:13.094Z,45.44
2023-02-16T16:08:23.361Z,45.44
2023-02-16T16:08:33.636Z,45.54
2023-02-16T16:08:43.844Z,45.54
2023-02-16T16:08:54.109Z,45.54
2023-02-16T16:09:04.322Z,45.54
2023-02-16T16:09:09.437Z,45.54
2023-02-16T16:09:19.633Z,46.14
2023-02-16T16:09:29.842Z,46.04
2023-02-16T16:09:40.053Z,45.94
2023-02-16T16:09:50.263Z,45.84
2023-02-16T16:10:00.472Z,45.74
2023-02-16T16:10:10.665Z,45.64
2023-02-16T16:10:20.928Z,45.64
2023-02-16T16:10:31.159Z,45.64
2023-02-16T16:10:41.436Z,45.54
2023-02-16T16:10:51.631Z,45.64
2023-02-16T16:11:01.845Z,45.64
2023-02-16T16:11:12.045Z,45.54
2023-02-16T16:11:22.239Z,45.54
2023-02-16T16:11:32.455Z,45.64
2023-02-16T16:11:42.719Z,45.54
2023-02-16T16:11:52.974Z,45.54
2023-02-16T16:12:03.253Z,45.54
2023-02-16T16:12:13.480Z,45.54
2023-02-16T16:12:23.721Z,45.54
2023-02-16T16:12:34.012Z,45.54
2023-02-16T16:12:44.202Z,45.54
2023-02-16T16:12:54.427Z,45.54
2023-02-16T16:12:59.525Z,45.54
2023-02-16T16:13:09.736Z,45.54
2023-02-16T16:13:19.919Z,45.54
2023-02-16T16:13:30.179Z,45.44
2023-02-16T16:13:40.374Z,45.54
2023-02-16T16:13:50.646Z,45.54
2023-02-16T16:14:00.821Z,45.54
2023-02-16T16:14:11.093Z,45.54
2023-02-16T16:14:21.327Z,45.54
2023-02-16T16:14:31.542Z,45.54
2023-02-16T16:14:41.803Z,45.64
2023-02-16T16:14:52.004Z,45.64
2023-02-16T16:15:02.260Z,45.54
2023-02-16T16:15:12.469Z,45.64
2023-02-16T16:15:22.670Z,45.64
2023-02-16T16:15:32.891Z,47.05
2023-02-16T16:15:43.089Z,48.74
2023-02-16T16:15:53.329Z,46.10
2023-02-16T16:16:28.771Z,44.27
2023-02-16T16:16:33.596Z,44.27
2023-02-16T16:16:38.399Z,44.27
2023-02-16T16:16:43.116Z,44.27
2023-02-16T16:16:47.832Z,44.29
2023-02-16T16:16:52.536Z,44.39
2023-02-16T16:17:01.912Z,44.59
2023-02-16T16:17:11.310Z,45.37
2023-02-16T16:17:20.692Z,45.07
2023-02-16T16:17:30.088Z,44.67
2023-02-16T16:17:39.460Z,44.57
2023-02-16T16:17:53.549Z,44.47
2023-02-16T16:18:02.934Z,44.37
2023-02-16T16:18:12.319Z,44.37
2023-02-16T16:18:21.668Z,44.37
2023-02-16T16:18:31.051Z,44.37
2023-02-16T16:18:40.445Z,44.37
2023-02-16T16:18:49.810Z,44.37
2023-02-16T16:19:03.875Z,44.37
2023-02-16T16:19:13.252Z,44.27
2023-02-16T16:19:22.635Z,44.27
2023-02-16T16:19:32.025Z,44.27
2023-02-16T16:19:41.403Z,44.27
2023-02-16T16:19:50.787Z,44.27
2023-02-16T16:20:00.175Z,44.27
2023-02-16T16:20:09.556Z,44.27
2023-02-16T16:20:23.615Z,44.27
2023-02-16T16:20:32.997Z,44.27
2023-02-16T16:20:42.386Z,44.27
2023-02-16T16:20:51.880Z,44.27
2023-02-16T16:21:01.345Z,44.27
2023-02-16T16:21:10.739Z,44.27
2023-02-16T16:21:20.102Z,44.27
2023-02-16T16:21:29.467Z,44.27
2023-02-16T16:21:43.562Z,44.27
2023-02-16T16:21:52.939Z,44.27
2023-02-16T16:22:02.335Z,44.27
2023-02-16T16:22:11.746Z,44.27
2023-02-16T16:22:22.163Z,44.27
2023-02-16T16:22:31.579Z,44.29
2023-02-16T16:22:40.989Z,44.29
2023-02-16T16:22:50.401Z,44.39
2023-02-16T16:22:59.801Z,44.37
2023-02-16T16:23:13.872Z,44.29
2023-02-16T16:23:23.255Z,44.37
2023-02-16T16:23:32.631Z,44.39
2023-02-16T16:23:42.018Z,44.39
2023-02-16T16:23:51.413Z,44.39
2023-02-16T16:24:00.805Z,44.39
2023-02-16T16:24:10.212Z,44.39
2023-02-16T16:24:19.598Z,44.39
2023-02-16T16:24:33.673Z,44.39
2023-02-16T16:24:43.041Z,44.39
2023-02-16T16:24:52.448Z,44.39
2023-02-16T16:25:01.820Z,44.39
2023-02-16T16:25:11.215Z,44.39
2023-02-16T16:25:20.616Z,44.39
2023-02-16T16:25:29.977Z,44.39
2023-02-16T16:25:39.366Z,44.49
2023-02-16T16:25:53.425Z,44.49
2023-02-16T16:26:03.146Z,44.39
2023-02-16T16:26:12.626Z,44.39
2023-02-16T16:26:22.034Z,44.49
2023-02-16T16:26:31.432Z,44.49
2023-02-16T16:26:40.796Z,44.39
2023-02-16T16:26:50.296Z,44.49
2023-02-16T16:26:59.742Z,44.39
2023-02-16T16:27:13.778Z,44.39
2023-02-16T16:27:23.160Z,44.39
2023-02-16T16:27:32.546Z,44.39
2023-02-16T16:27:41.946Z,44.49
2023-02-16T16:27:51.321Z,44.39
2023-02-16T16:28:00.709Z,44.39
2023-02-16T16:28:10.106Z,44.49
2023-02-16T16:28:21.353Z,44.39
2023-02-16T16:28:31.431Z,44.49
2023-02-16T16:28:40.805Z,44.49
2023-02-16T16:28:50.202Z,44.69
2023-02-16T16:28:59.574Z,44.79
2023-02-16T16:29:13.632Z,44.89
2023-02-16T16:29:23.041Z,45.39
2023-02-16T16:29:32.417Z,45.57
2023-02-16T16:29:41.823Z,45.07
2023-02-16T16:29:51.212Z,44.75
2023-02-16T16:30:00.647Z,44.43
2023-02-16T16:30:10.056Z,43.80
2023-02-16T16:30:19.474Z,43.28
2023-02-16T16:30:33.557Z,42.86
2023-02-16T16:30:42.941Z,42.44
2023-02-16T16:30:52.385Z,42.02
2023-02-16T16:31:01.999Z,41.61
2023-02-16T16:31:11.720Z,41.39
2023-02-16T16:31:21.365Z,41.17
2023-02-16T16:31:30.901Z,40.87
2023-02-16T16:31:40.414Z,40.55
2023-02-16T16:31:49.949Z,40.85
2023-02-16T16:31:59.463Z,40.35
2023-02-16T16:32:13.577Z,40.03
2023-02-16T16:32:23.077Z,39.93
2023-02-16T16:32:32.465Z,39.93
2023-02-16T16:32:41.849Z,39.81
2023-02-16T16:32:51.248Z,40.01
2023-02-16T16:33:00.652Z,39.81
2023-02-16T16:33:10.071Z,39.61
2023-02-16T16:33:19.520Z,39.51
2023-02-16T16:33:33.564Z,39.41
2023-02-16T16:33:42.948Z,39.29
2023-02-16T16:53:54.383Z,46.87
2023-02-16T16:53:59.084Z,46.67
2023-02-16T16:54:03.794Z,46.67
2023-02-16T16:54:08.473Z,46.67
2023-02-16T16:54:13.185Z,46.57
2023-02-16T16:54:17.897Z,46.37
2023-02-16T16:54:22.589Z,46.37
2023-02-16T16:54:27.278Z,46.47
2023-02-16T16:54:31.978Z,46.37
2023-02-16T16:54:36.689Z,46.17
2023-02-16T16:54:46.085Z,46.06
2023-02-16T16:54:55.455Z,46.17
2023-02-16T16:55:04.938Z,46.17
2023-02-16T16:55:19.096Z,46.26
2023-02-16T16:55:28.463Z,46.26
2023-02-16T16:55:37.857Z,46.17
2023-02-16T16:55:47.258Z,46.06
2023-02-16T16:55:56.648Z,46.37
2023-02-16T16:56:06.333Z,46.37
2023-02-16T16:56:15.902Z,46.47
2023-02-16T16:56:25.269Z,46.45
2023-02-16T16:56:34.647Z,46.25
2023-02-16T16:56:48.694Z,46.04
2023-02-16T16:56:58.067Z,46.14
2023-02-16T16:57:07.440Z,46.25
2023-02-16T16:57:16.802Z,46.25
2023-02-16T16:57:26.137Z,46.04
2023-02-16T16:57:35.468Z,46.06
2023-02-16T16:57:44.803Z,45.97
2023-02-16T16:57:58.792Z,46.06
2023-02-16T16:58:08.142Z,46.06
2023-02-16T16:58:17.468Z,46.06
2023-02-16T16:58:26.797Z,46.06
2023-02-16T16:58:36.129Z,46.06
2023-02-16T16:58:45.467Z,46.17
2023-02-16T16:58:54.811Z,46.17
2023-02-16T16:59:08.804Z,46.17
2023-02-16T16:59:18.149Z,46.26
2023-02-16T16:59:27.501Z,46.26
2023-02-16T16:59:36.842Z,46.26
2023-02-16T16:59:46.180Z,46.29
2023-02-16T16:59:55.594Z,46.39
2023-02-16T17:00:04.928Z,46.39
2023-02-16T17:00:18.943Z,46.39
2023-02-16T17:00:28.289Z,46.39
2023-02-16T17:00:37.644Z,46.39
2023-02-16T17:00:46.990Z,46.39
2023-02-16T17:00:56.343Z,46.49
2023-02-16T17:01:05.989Z,46.49
2023-02-16T17:01:15.387Z,46.49
2023-02-16T17:01:24.733Z,46.49
2023-02-16T17:01:38.766Z,46.59
2023-02-16T17:01:48.227Z,46.59
2023-02-16T17:01:57.633Z,46.59
2023-02-16T17:02:07.039Z,46.59
2023-02-16T17:02:16.395Z,46.59
2023-02-16T17:02:25.737Z,46.59
2023-02-16T17:02:35.084Z,46.59
2023-02-16T17:02:44.432Z,46.59
2023-02-16T17:02:58.449Z,46.59
2023-02-16T17:03:07.813Z,46.59
2023-02-16T17:03:17.141Z,46.59
2023-02-16T17:03:26.480Z,46.59
2023-02-16T17:03:35.827Z,46.59
2023-02-16T17:03:45.203Z,46.59
2023-02-16T17:03:54.580Z,46.59
2023-02-16T17:04:08.606Z,46.59
2023-02-16T17:04:18.025Z,46.59
2023-02-16T17:04:27.473Z,46.59
2023-02-16T17:04:36.821Z,46.69
2023-02-16T17:04:46.167Z,46.69
2023-02-16T17:04:55.523Z,46.69
2023-02-16T17:05:04.852Z,46.69
2023-02-16T17:05:18.851Z,46.69
2023-02-16T17:05:28.192Z,46.69
2023-02-16T17:05:37.534Z,46.69
2023-02-16T17:05:46.871Z,46.69
2023-02-16T17:05:56.210Z,46.69
2023-02-16T17:06:05.922Z,46.69
2023-02-16T17:06:15.396Z,46.69
2023-02-16T17:06:24.750Z,46.79
2023-02-16T17:06:38.771Z,46.69
2023-02-16T17:06:48.105Z,46.69
2023-02-16T17:06:57.461Z,46.69
2023-02-16T17:07:06.823Z,46.69
2023-02-16T17:07:16.225Z,46.69
2023-02-16T17:07:25.604Z,46.69
2023-02-16T17:07:34.998Z,46.69
2023-02-16T17:07:48.996Z,46.79
2023-02-16T17:07:58.357Z,46.79
2023-02-16T17:08:07.714Z,46.79
2023-02-16T17:08:17.087Z,46.79
2023-02-16T17:08:26.444Z,46.79
2023-02-16T17:08:35.779Z,46.79
2023-02-16T17:08:45.111Z,46.79
2023-02-16T17:08:54.473Z,46.69
2023-02-16T17:09:08.467Z,46.69
2023-02-16T17:09:17.818Z,46.69
2023-02-16T17:09:27.168Z,46.69
2023-02-16T17:09:36.516Z,46.69
2023-02-16T17:09:45.871Z,46.69
2023-02-16T17:09:55.241Z,46.69
2023-02-16T17:10:04.603Z,46.69
2023-02-16T17:10:18.609Z,46.69
2023-02-16T17:10:27.984Z,46.69
2023-02-16T17:10:37.351Z,46.79
2023-02-16T17:10:46.712Z,46.79
2023-02-16T17:10:56.060Z,46.79
2023-02-16T17:11:05.422Z,46.79
2023-02-16T17:11:14.834Z,46.79
2023-02-16T17:11:28.877Z,46.79
2023-02-16T17:11:38.219Z,46.79
2023-02-16T17:11:47.561Z,46.79
2023-02-16T17:11:56.930Z,46.79
2023-02-16T17:12:06.310Z,46.79
2023-02-16T17:12:15.657Z,46.79
2023-02-16T17:12:25.003Z,46.79
2023-02-16T17:12:38.990Z,46.79
2023-02-16T17:12:48.325Z,46.79
2023-02-16T17:12:57.682Z,46.79
2023-02-16T17:13:07.015Z,46.79
2023-02-16T17:13:16.355Z,46.89
2023-02-16T17:13:25.696Z,46.89
2023-02-16T17:13:35.046Z,46.89
2023-02-16T17:13:44.386Z,46.89
2023-02-16T17:13:58.417Z,46.89
2023-02-16T17:14:07.781Z,46.89
2023-02-16T17:14:17.173Z,46.89
2023-02-16T17:14:28.357Z,46.89
2023-02-16T17:14:37.895Z,46.89
2023-02-16T17:14:47.265Z,46.89
2023-02-16T17:14:56.631Z,46.89
2023-02-16T17:15:05.978Z,46.89
2023-02-16T17:15:15.337Z,46.89
2023-02-16T17:15:24.722Z,46.99
2023-02-16T17:15:38.762Z,46.99
2023-02-16T17:15:48.135Z,46.99
2023-02-16T17:15:57.493Z,47.09
2023-02-16T17:16:07.293Z,47.09
2023-02-16T17:16:16.914Z,46.99
2023-02-16T17:16:26.377Z,46.99
2023-02-16T17:16:35.838Z,46.99
2023-02-16T17:16:45.235Z,46.89
2023-02-16T17:16:54.630Z,46.89
2023-02-16T17:17:08.698Z,46.89
2023-02-16T17:17:18.126Z,46.89
2023-02-16T17:17:27.526Z,46.89
2023-02-16T17:17:36.884Z,46.89
2023-02-16T17:17:46.265Z,46.89
2023-02-16T17:17:55.617Z,46.89
2023-02-16T17:18:04.969Z,46.89
2023-02-16T17:18:19.022Z,46.89
2023-02-16T17:18:28.398Z,46.89
2023-02-16T17:18:37.770Z,46.89
2023-02-16T17:18:47.173Z,46.99
2023-02-16T17:18:56.548Z,46.99
2023-02-16T17:19:05.922Z,46.89
2023-02-16T17:19:15.314Z,46.99
2023-02-16T17:19:25.041Z,46.99
2023-02-16T17:19:34.459Z,46.89
2023-02-16T17:19:48.490Z,46.99
2023-02-16T17:19:57.860Z,46.99
2023-02-16T17:20:07.214Z,46.99
2023-02-16T17:20:16.566Z,46.89
2023-02-16T17:20:25.925Z,46.89
2023-02-16T17:20:35.295Z,46.99
2023-02-16T17:20:44.725Z,46.99
2023-02-16T17:20:58.747Z,46.99
2023-02-16T17:21:08.095Z,46.99
2023-02-16T17:21:17.458Z,46.99
2023-02-16T17:21:26.810Z,46.89
2023-02-16T17:21:36.182Z,46.89
2023-02-16T17:21:45.571Z,46.99
2023-02-16T17:21:54.902Z,46.99
2023-02-16T17:22:08.893Z,46.99
2023-02-16T17:22:18.265Z,46.99
2023-02-16T17:22:27.606Z,47.50
2023-02-16T17:22:37.011Z,48.10
2023-02-16T17:22:46.401Z,49.01
2023-02-16T17:22:55.811Z,48.21
2023-02-16T17:23:05.208Z,48.00
2023-02-16T17:23:14.568Z,47.50
2023-02-16T17:23:28.664Z,47.19
2023-02-16T17:23:39.136Z,47.09
2023-02-16T17:23:52.540Z,46.99
2023-02-16T17:23:57.801Z,46.99
2023-02-16T17:24:07.205Z,46.89
2023-02-16T17:24:16.588Z,46.89
2023-02-16T17:24:25.966Z,46.89
2023-02-16T17:24:35.350Z,46.99
2023-02-16T17:24:44.729Z,46.99
2023-02-16T17:24:58.787Z,46.97
2023-02-16T17:25:08.196Z,46.97
2023-02-16T17:25:17.585Z,46.87
2023-02-16T17:25:26.978Z,46.87
2023-02-16T17:25:36.345Z,46.77
2023-02-16T17:25:45.726Z,46.77
2023-02-16T17:25:55.130Z,46.77
2023-02-16T17:26:04.831Z,46.67
2023-02-16T17:26:19.014Z,46.57
2023-02-16T17:26:28.405Z,46.57
2023-02-16T17:26:37.813Z,46.57
2023-02-16T17:26:47.173Z,46.77
2023-02-16T17:26:56.562Z,46.77
2023-02-16T17:27:05.945Z,46.67
2023-02-16T17:27:15.325Z,46.67
2023-02-16T17:27:24.710Z,46.67
2023-02-16T17:27:38.806Z,46.67
2023-02-16T17:27:48.196Z,46.57
2023-02-16T17:27:57.593Z,46.57
2023-02-16T17:28:06.972Z,46.57
2023-02-16T17:28:16.353Z,46.47
2023-02-16T17:28:25.758Z,46.47
2023-02-16T17:28:35.150Z,46.47
2023-02-16T17:28:44.558Z,46.47
2023-02-16T17:28:58.618Z,46.47
2023-02-16T17:29:08.008Z,46.47
2023-02-16T17:29:17.388Z,46.47
2023-02-16T17:29:26.788Z,46.37
2023-02-16T17:29:36.169Z,46.37
2023-02-16T17:29:45.553Z,46.47
2023-02-16T17:29:55.114Z,46.47
2023-02-16T17:30:04.583Z,46.57
2023-02-16T17:30:18.784Z,46.57
2023-02-16T17:30:28.290Z,46.57
2023-02-16T17:30:37.680Z,46.57
2023-02-16T17:30:47.061Z,46.57
2023-02-16T17:30:56.441Z,46.47
2023-02-16T17:31:05.939Z,46.47
2023-02-16T17:31:15.558Z,46.47
2023-02-16T17:31:25.102Z,46.47
2023-02-16T17:31:34.791Z,46.47
2023-02-16T17:31:50.531Z,46.47
2023-02-16T17:31:55.459Z,46.47
2023-02-16T17:32:04.972Z,46.47
2023-02-16T17:32:14.557Z,46.37
2023-02-16T17:32:28.829Z,46.47
2023-02-16T17:32:38.217Z,46.47
2023-02-16T17:32:47.593Z,46.37
2023-02-16T17:32:57.000Z,46.37
2023-02-16T17:33:06.386Z,46.37
2023-02-16T17:33:15.770Z,46.37
2023-02-16T17:33:25.145Z,46.37
2023-02-16T17:33:34.538Z,46.37
2023-02-16T17:33:48.585Z,46.37
2023-02-16T17:33:57.976Z,46.37
2023-02-16T17:34:07.362Z,46.37
2023-02-16T17:34:16.745Z,46.26
2023-02-16T17:34:26.131Z,46.26
2023-02-16T17:34:35.526Z,46.26
2023-02-16T17:34:44.944Z,46.26
2023-02-16T17:34:59.014Z,46.26
2023-02-16T17:35:08.400Z,46.26
2023-02-16T17:35:17.782Z,46.26
2023-02-16T17:35:27.168Z,46.26
2023-02-16T17:35:36.558Z,46.26
2023-02-16T17:35:45.959Z,46.26
2023-02-16T17:35:55.368Z,46.26
2023-02-16T17:36:05.146Z,46.26
2023-02-16T17:36:14.673Z,46.26
2023-02-16T17:36:28.775Z,46.26
2023-02-16T17:36:38.153Z,46.26
2023-02-16T17:36:47.553Z,46.26
2023-02-16T17:36:56.926Z,46.26
2023-02-16T17:37:06.310Z,46.26
2023-02-16T17:37:17.003Z,46.26
2023-02-16T17:37:27.372Z,46.26
2023-02-16T17:37:36.758Z,46.26
2023-02-16T17:37:46.131Z,46.26
2023-02-16T17:37:55.502Z,46.26
2023-02-16T17:38:04.882Z,46.26
2023-02-16T17:38:18.961Z,46.17
2023-02-16T17:38:28.342Z,46.17
2023-02-16T17:38:37.735Z,46.17
2023-02-16T17:38:47.124Z,46.26
2023-02-16T17:38:56.533Z,46.26
2023-02-16T17:39:05.899Z,46.26
2023-02-16T17:39:15.277Z,46.17
2023-02-16T17:39:24.674Z,46.26
2023-02-16T17:39:38.733Z,46.26
2023-02-16T17:39:48.119Z,46.26
2023-02-16T17:39:57.497Z,46.26
2023-02-16T17:40:06.891Z,46.26
2023-02-16T17:40:16.345Z,46.26
2023-02-16T17:40:25.728Z,46.26
2023-02-16T17:40:35.121Z,46.17
2023-02-16T17:40:44.506Z,46.26
2023-02-16T17:40:58.541Z,46.26
2023-02-16T17:41:07.922Z,46.17
2023-02-16T17:41:17.304Z,46.17
2023-02-16T17:41:26.723Z,46.17
2023-02-16T17:41:36.110Z,46.17
2023-02-16T17:41:45.503Z,46.26
2023-02-16T17:41:54.975Z,46.17
2023-02-16T17:42:09.017Z,46.17
2023-02-16T17:42:18.402Z,46.26
2023-02-16T17:42:28.290Z,46.17
2023-02-16T17:42:37.706Z,46.17
2023-02-16T17:42:47.082Z,46.17
2023-02-16T17:42:56.460Z,46.17
2023-02-16T17:43:05.846Z,46.17
2023-02-16T17:43:15.295Z,46.17
2023-02-16T17:43:24.660Z,46.17
2023-02-16T17:43:38.725Z,46.17
2023-02-16T17:43:48.114Z,46.17
2023-02-16T17:43:57.481Z,46.17
2023-02-16T17:44:06.875Z,46.17
2023-02-16T17:44:16.273Z,46.17
2023-02-16T17:44:25.652Z,46.26
2023-02-16T17:44:35.037Z,46.17
2023-02-16T17:44:44.430Z,46.17
2023-02-16T17:44:58.480Z,46.17
2023-02-16T17:45:07.861Z,46.17
2023-02-16T17:45:17.232Z,46.17
2023-02-16T17:45:26.613Z,46.17
2023-02-16T17:45:36.029Z,46.17
2023-02-16T17:45:45.403Z,46.17
2023-02-16T17:45:54.806Z,46.17
2023-02-16T17:46:09.061Z,46.17
2023-02-16T17:46:18.574Z,46.17
2023-02-16T17:46:27.950Z,46.17
2023-02-16T17:46:37.335Z,46.17
2023-02-16T17:46:46.736Z,46.17
2023-02-16T17:46:56.130Z,46.17
2023-02-16T17:47:05.536Z,46.17
2023-02-16T17:47:14.905Z,46.17
2023-02-16T17:47:24.390Z,46.17
2023-02-16T17:47:38.466Z,46.17
2023-02-16T17:47:47.841Z,46.17
2023-02-16T17:47:57.205Z,46.17
2023-02-16T17:48:06.585Z,46.17
2023-02-16T17:48:15.973Z,46.17
2023-02-16T17:48:27.003Z,46.17
2023-02-16T17:48:37.507Z,46.17
2023-02-16T17:48:46.896Z,46.17
2023-02-16T17:48:56.407Z,46.17
2023-02-16T17:49:05.761Z,46.17
2023-02-16T17:49:15.136Z,46.17
2023-02-16T17:49:24.506Z,46.17
2023-02-16T17:49:38.579Z,46.17
2023-02-16T17:49:47.985Z,46.17
2023-02-16T17:49:57.358Z,46.17
2023-02-16T17:50:06.745Z,46.17
2023-02-16T17:50:16.137Z,46.17
2023-02-16T17:50:25.521Z,46.17
2023-02-16T17:50:34.922Z,46.17
2023-02-16T17:50:48.974Z,46.17
2023-02-16T17:50:58.374Z,46.17
2023-02-16T17:51:07.730Z,46.17
2023-02-16T17:51:17.114Z,46.17
2023-02-16T17:51:26.509Z,46.17
2023-02-16T17:51:35.894Z,46.17
2023-02-16T17:51:45.282Z,46.17
2023-02-16T17:51:54.763Z,46.17
2023-02-16T17:52:08.812Z,46.17
2023-02-16T17:52:18.199Z,46.17
2023-02-16T17:52:27.602Z,46.17
2023-02-16T17:52:36.970Z,46.17
2023-02-16T17:52:46.352Z,46.17
2023-02-16T17:52:55.778Z,46.17
2023-02-16T17:53:05.149Z,46.17
2023-02-16T17:53:14.531Z,46.17
2023-02-16T17:53:28.601Z,46.17
2023-02-16T17:53:37.982Z,46.17
2023-02-16T17:53:47.354Z,46.17
2023-02-16T17:53:56.746Z,46.17
2023-02-16T17:54:06.550Z,46.17
2023-02-16T17:54:16.057Z,46.17
2023-02-16T17:54:25.452Z,46.17
2023-02-16T17:54:34.846Z,46.17
2023-02-16T17:54:48.897Z,46.17
2023-02-16T17:54:58.274Z,46.17
2023-02-16T17:55:07.654Z,46.17
2023-02-16T17:55:17.355Z,46.17
2023-02-16T17:55:26.730Z,46.17
2023-02-16T17:55:36.118Z,46.17
2023-02-16T17:55:45.511Z,46.17
2023-02-16T17:55:54.899Z,46.17
2023-02-16T17:56:08.946Z,46.06
2023-02-16T17:56:18.337Z,46.06
2023-02-16T17:56:28.059Z,46.17
2023-02-16T17:56:37.438Z,46.17
2023-02-16T17:56:46.831Z,46.06
2023-02-16T17:56:56.226Z,46.17
2023-02-16T17:57:05.627Z,46.17
2023-02-16T17:57:15.037Z,46.17
2023-02-16T17:57:24.430Z,46.17
2023-02-16T17:57:38.503Z,46.17
2023-02-16T17:57:47.910Z,46.17
2023-02-16T17:57:57.298Z,46.17
2023-02-16T17:58:06.680Z,46.06
2023-02-16T17:58:16.057Z,46.06
2023-02-16T17:58:25.487Z,46.17
2023-02-16T17:58:34.851Z,46.17
2023-02-16T17:58:48.914Z,46.06
2023-02-16T17:58:58.334Z,46.06
2023-02-16T17:59:07.727Z,46.06
2023-02-16T17:59:17.166Z,46.06
2023-02-16T17:59:28.231Z,46.17
2023-02-16T17:59:38.596Z,46.06
2023-02-16T17:59:47.986Z,46.06
2023-02-16T17:59:57.370Z,46.06
2023-02-16T18:00:06.783Z,46.06
2023-02-16T18:00:16.188Z,46.06
2023-02-16T18:00:25.577Z,46.17
2023-02-16T18:00:34.970Z,46.17
2023-02-16T18:00:49.060Z,46.17
2023-02-16T18:00:58.485Z,46.17
2023-02-16T18:01:07.913Z,46.17
2023-02-16T18:01:17.363Z,46.17
2023-02-16T18:01:26.828Z,46.06
2023-02-16T18:01:36.289Z,46.06
2023-02-16T18:01:45.665Z,46.17
2023-02-16T18:01:55.046Z,46.17
2023-02-16T18:02:04.428Z,46.06
2023-02-16T18:02:18.555Z,46.06
2023-02-16T18:02:27.940Z,46.06
2023-02-16T18:02:37.320Z,46.06
2023-02-16T18:02:46.710Z,46.06
2023-02-16T18:02:56.103Z,46.06
2023-02-16T18:03:05.493Z,46.06
2023-02-16T18:03:14.883Z,46.06
2023-02-16T18:03:28.955Z,46.06
2023-02-16T18:03:38.351Z,46.06
2023-02-16T18:03:47.754Z,46.06
2023-02-16T18:03:57.115Z,46.06
2023-02-16T18:04:06.534Z,46.04
2023-02-16T18:04:15.923Z,46.06
2023-02-16T18:04:25.376Z,46.06
2023-02-16T18:04:34.833Z,45.97
2023-02-16T18:04:48.874Z,46.06
2023-02-16T18:04:58.267Z,46.04
2023-02-16T18:05:07.655Z,46.06
2023-02-16T18:05:17.036Z,46.06
2023-02-16T18:05:26.412Z,46.06
2023-02-16T18:05:35.804Z,46.06
2023-02-16T18:05:45.200Z,46.06
2023-02-16T18:05:54.599Z,46.06
2023-02-16T18:06:08.666Z,46.06
2023-02-16T18:06:18.053Z,46.06
2023-02-16T18:06:29.108Z,46.06
2023-02-16T18:06:38.540Z,46.06
2023-02-16T18:06:47.924Z,46.06
2023-02-16T18:06:57.319Z,46.06
2023-02-16T18:07:06.713Z,46.06
2023-02-16T18:07:16.145Z,46.06
2023-02-16T18:07:25.507Z,46.06
2023-02-16T18:07:34.885Z,46.06
2023-02-16T18:07:48.926Z,46.06
2023-02-16T18:07:58.324Z,46.06
2023-02-16T18:08:07.710Z,45.94
2023-02-16T18:08:17.095Z,45.97
2023-02-16T18:08:26.511Z,45.94
2023-02-16T18:08:35.879Z,46.04
2023-02-16T18:08:45.285Z,46.04
2023-02-16T18:08:54.683Z,45.94
2023-02-16T18:09:08.751Z,45.97
2023-02-16T18:09:18.150Z,45.94
2023-02-16T18:09:27.574Z,45.94
2023-02-16T18:09:36.968Z,45.94
2023-02-16T18:09:46.354Z,45.94
2023-02-16T18:09:55.781Z,45.94
2023-02-16T18:10:05.127Z,45.97
2023-02-16T18:10:14.492Z,45.94
2023-02-16T18:10:28.548Z,45.94
2023-02-16T18:10:37.931Z,45.94
2023-02-16T18:10:47.316Z,45.94
2023-02-16T18:10:56.691Z,45.94
2023-02-16T18:11:06.082Z,45.94
2023-02-16T18:11:15.486Z,45.94
2023-02-16T18:11:25.009Z,45.97
2023-02-16T18:11:34.441Z,45.94
2023-02-16T18:11:48.517Z,45.97
2023-02-16T18:11:57.894Z,45.97
2023-02-16T18:12:07.274Z,45.97
2023-02-16T18:12:16.639Z,46.04
2023-02-16T18:12:28.352Z,46.06
2023-02-16T18:12:37.903Z,46.06
2023-02-16T18:12:47.275Z,45.97
2023-02-16T18:12:56.643Z,45.97
2023-02-16T18:13:06.053Z,46.06
2023-02-16T18:13:15.459Z,46.04
2023-02-16T18:13:24.851Z,46.06
2023-02-16T18:13:38.920Z,46.06
2023-02-16T18:13:48.304Z,46.06
2023-02-16T18:13:57.706Z,46.06
2023-02-16T18:14:07.086Z,46.06
2023-02-16T18:14:16.473Z,46.06
2023-02-16T18:14:25.829Z,46.06
2023-02-16T18:14:35.210Z,46.06
2023-02-16T18:14:44.576Z,46.06
2023-02-16T18:14:58.635Z,45.94
2023-02-16T18:15:07.998Z,45.94
2023-02-16T18:15:17.388Z,45.94
2023-02-16T18:15:26.775Z,45.94
2023-02-16T18:15:36.192Z,45.94
2023-02-16T18:15:45.650Z,45.94
2023-02-16T18:15:55.026Z,45.94
2023-02-16T18:16:04.737Z,45.94
2023-02-16T18:16:19.070Z,45.94
2023-02-16T18:16:28.551Z,45.94
2023-02-16T18:16:38.009Z,45.94
2023-02-16T18:16:47.451Z,45.94
2023-02-16T18:16:56.916Z,45.94
2023-02-16T18:17:06.284Z,45.94
2023-02-16T18:17:15.667Z,45.94
2023-02-16T18:17:25.043Z,45.94
2023-02-16T18:17:34.434Z,45.94
2023-02-16T18:17:48.486Z,45.94
2023-02-16T18:17:57.880Z,45.94
2023-02-16T18:18:07.304Z,45.94
2023-02-16T18:18:16.715Z,45.94
2023-02-16T18:18:26.127Z,45.94
2023-02-16T18:18:35.507Z,45.94
2023-02-16T18:18:44.875Z,45.94
2023-02-16T18:18:58.943Z,45.94
2023-02-16T18:19:08.318Z,45.94
2023-02-16T18:19:17.714Z,45.94
2023-02-16T18:19:27.107Z,45.94
2023-02-16T18:19:36.499Z,45.94
2023-02-16T18:19:45.875Z,45.94
2023-02-16T18:19:55.264Z,45.94
2023-02-16T18:20:04.735Z,45.94
2023-02-16T18:20:18.787Z,45.94
2023-02-16T18:20:28.161Z,45.94
2023-02-16T18:20:37.535Z,45.94
2023-02-16T18:20:46.902Z,45.94
2023-02-16T18:20:56.299Z,45.94
2023-02-16T18:21:05.702Z,45.94
2023-02-16T18:21:15.113Z,45.94
2023-02-16T18:21:24.510Z,45.94
2023-02-16T18:21:38.569Z,45.94
2023-02-16T18:21:47.953Z,45.94
2023-02-16T18:21:57.331Z,45.94
2023-02-16T18:22:06.706Z,45.94
2023-02-16T18:22:16.087Z,45.94
2023-02-16T18:22:25.472Z,45.94
2023-02-16T18:22:34.843Z,45.94
2023-02-16T18:22:48.921Z,45.94
2023-02-16T18:22:58.301Z,45.94
2023-02-16T18:23:07.727Z,45.84
2023-02-16T18:23:17.114Z,45.94
2023-02-16T18:23:26.494Z,45.94
2023-02-16T18:23:35.900Z,45.94
2023-02-16T18:23:45.307Z,45.94
2023-02-16T18:23:54.700Z,45.94
2023-02-16T18:24:08.754Z,45.94
2023-02-16T18:24:18.159Z,45.94
2023-02-16T18:24:27.546Z,45.94
2023-02-16T18:24:36.935Z,45.94
2023-02-16T18:24:46.318Z,45.94
2023-02-16T18:24:55.720Z,45.94
2023-02-16T18:25:05.122Z,45.94
2023-02-16T18:25:14.502Z,45.84
2023-02-16T18:25:28.568Z,45.84
2023-02-16T18:25:37.976Z,45.84
2023-02-16T18:25:47.331Z,45.94
2023-02-16T18:25:56.728Z,45.94
2023-02-16T18:26:06.479Z,45.84
2023-02-16T18:26:16.105Z,45.84
2023-02-16T18:26:25.465Z,45.84
2023-02-16T18:26:34.863Z,45.94
2023-02-16T18:26:48.928Z,45.84
2023-02-16T18:26:58.311Z,45.84
2023-02-16T18:27:07.777Z,45.84
2023-02-16T18:27:17.163Z,45.84
2023-02-16T18:27:29.148Z,45.84
2023-02-16T18:27:38.747Z,45.84
2023-02-16T18:27:48.124Z,45.84
2023-02-16T18:27:57.500Z,45.84
2023-02-16T18:28:06.900Z,45.84
2023-02-16T18:28:16.296Z,45.84
2023-02-16T18:28:25.663Z,45.84
2023-02-16T18:28:35.107Z,45.84
2023-02-16T18:28:44.473Z,45.84
2023-02-16T18:28:58.536Z,45.84
2023-02-16T18:29:07.931Z,45.84
2023-02-16T18:29:17.323Z,45.84
2023-02-16T18:29:26.741Z,45.84
2023-02-16T18:29:36.134Z,45.84
2023-02-16T18:29:45.539Z,45.84
2023-02-16T18:29:54.950Z,45.84
2023-02-16T18:30:09.049Z,45.84
2023-02-16T18:30:18.431Z,45.84
2023-02-16T18:30:27.865Z,45.84
2023-02-16T18:30:37.303Z,45.84
2023-02-16T18:30:46.713Z,45.84
2023-02-16T18:30:56.182Z,45.84
2023-02-16T18:31:05.720Z,45.84
2023-02-16T18:31:15.278Z,45.84
2023-02-16T18:31:24.752Z,45.84
2023-02-16T18:31:38.915Z,45.84
2023-02-16T18:31:48.415Z,45.84
2023-02-16T18:31:57.842Z,45.84
2023-02-16T18:32:07.227Z,45.84
2023-02-16T18:32:16.606Z,45.84
2023-02-16T18:32:25.994Z,45.84
2023-02-16T18:32:35.380Z,45.84
2023-02-16T18:32:44.744Z,45.84
2023-02-16T18:32:58.931Z,45.84
2023-02-16T18:33:08.322Z,45.84
2023-02-16T18:33:17.700Z,45.84